sensor_id;sensor_type;location;lat;lon;timestamp;temperature;humidity
32147;DHT22;32190;49.112;8.598;2023-07-30T00:02:59;25.30;59.60
32147;DHT22;32190;49.112;8.598;2023-07-30T00:08:49;25.20;59.60
32147;DHT22;32190;49.112;8.598;2023-07-30T00:14:40;25.10;59.60
32147;DHT22;32190;49.112;8.598;2023-07-30T00:20:30;25.00;59.40
32147;DHT22;32190;49.112;8.598;2023-07-30T00:26:21;24.90;59.40
32147;DHT22;32190;49.112;8.598;2023-07-30T00:32:11;24.80;59.60
32147;DHT22;32190;49.112;8.598;2023-07-30T00:38:06;24.70;59.90
32147;DHT22;32190;49.112;8.598;2023-07-30T00:43:56;24.70;60.10
32147;DHT22;32190;49.112;8.598;2023-07-30T00:49:47;24.60;60.30
32147;DHT22;32190;49.112;8.598;2023-07-30T00:55:38;24.60;60.30
32147;DHT22;32190;49.112;8.598;2023-07-30T01:01:33;24.50;60.60
32147;DHT22;32190;49.112;8.598;2023-07-30T01:07:24;24.50;61.00
32147;DHT22;32190;49.112;8.598;2023-07-30T01:13:15;24.50;60.80
32147;DHT22;32190;49.112;8.598;2023-07-30T01:19:07;24.50;61.00
32147;DHT22;32190;49.112;8.598;2023-07-30T01:24:58;24.50;61.00
32147;DHT22;32190;49.112;8.598;2023-07-30T01:30:49;24.40;61.00
32147;DHT22;32190;49.112;8.598;2023-07-30T01:36:40;24.40;61.30
32147;DHT22;32190;49.112;8.598;2023-07-30T01:42:31;24.40;61.30
32147;DHT22;32190;49.112;8.598;2023-07-30T01:48:22;24.30;61.50
32147;DHT22;32190;49.112;8.598;2023-07-30T01:54:13;24.30;61.50
32147;DHT22;32190;49.112;8.598;2023-07-30T02:00:03;24.30;61.40
32147;DHT22;32190;49.112;8.598;2023-07-30T02:05:54;24.30;61.40
32147;DHT22;32190;49.112;8.598;2023-07-30T02:11:48;24.30;61.40
32147;DHT22;32190;49.112;8.598;2023-07-30T02:17:38;24.30;61.60
32147;DHT22;32190;49.112;8.598;2023-07-30T02:23:29;24.30;61.50
32147;DHT22;32190;49.112;8.598;2023-07-30T02:29:19;24.30;61.70
32147;DHT22;32190;49.112;8.598;2023-07-30T02:35:10;24.20;61.70
32147;DHT22;32190;49.112;8.598;2023-07-30T02:41:00;24.20;61.70
32147;DHT22;32190;49.112;8.598;2023-07-30T02:46:51;24.20;62.00
32147;DHT22;32190;49.112;8.598;2023-07-30T02:52:41;24.20;61.90
32147;DHT22;32190;49.112;8.598;2023-07-30T02:58:32;24.20;62.00
32147;DHT22;32190;49.112;8.598;2023-07-30T03:04:23;24.20;62.20
32147;DHT22;32190;49.112;8.598;2023-07-30T03:10:13;24.20;62.30
32147;DHT22;32190;49.112;8.598;2023-07-30T03:16:04;24.10;62.30
32147;DHT22;32190;49.112;8.598;2023-07-30T03:21:55;24.10;62.50
32147;DHT22;32190;49.112;8.598;2023-07-30T03:27:45;24.10;62.60
32147;DHT22;32190;49.112;8.598;2023-07-30T03:33:37;24.10;62.60
32147;DHT22;32190;49.112;8.598;2023-07-30T03:39:29;24.10;62.70
32147;DHT22;32190;49.112;8.598;2023-07-30T03:45:20;24.10;62.90
32147;DHT22;32190;49.112;8.598;2023-07-30T03:51:11;24.10;63.00
32147;DHT22;32190;49.112;8.598;2023-07-30T03:57:01;24.10;62.80
32147;DHT22;32190;49.112;8.598;2023-07-30T04:02:52;24.00;62.60
32147;DHT22;32190;49.112;8.598;2023-07-30T04:08:42;24.00;62.70
32147;DHT22;32190;49.112;8.598;2023-07-30T04:14:33;24.00;62.60
32147;DHT22;32190;49.112;8.598;2023-07-30T04:20:23;24.00;62.90
32147;DHT22;32190;49.112;8.598;2023-07-30T04:26:14;24.00;63.10
32147;DHT22;32190;49.112;8.598;2023-07-30T04:32:05;24.00;63.10
32147;DHT22;32190;49.112;8.598;2023-07-30T04:37:56;24.00;63.30
32147;DHT22;32190;49.112;8.598;2023-07-30T04:43:46;24.00;63.30
32147;DHT22;32190;49.112;8.598;2023-07-30T04:49:37;24.00;63.20
32147;DHT22;32190;49.112;8.598;2023-07-30T04:55:30;23.90;63.40
32147;DHT22;32190;49.112;8.598;2023-07-30T05:01:21;23.90;63.50
32147;DHT22;32190;49.112;8.598;2023-07-30T05:07:11;23.90;63.30
32147;DHT22;32190;49.112;8.598;2023-07-30T05:13:02;23.80;63.40
32147;DHT22;32190;49.112;8.598;2023-07-30T05:18:53;23.80;63.30
32147;DHT22;32190;49.112;8.598;2023-07-30T05:24:43;23.80;63.20
32147;DHT22;32190;49.112;8.598;2023-07-30T05:30:34;23.80;63.20
32147;DHT22;32190;49.112;8.598;2023-07-30T05:36:24;23.80;63.10
32147;DHT22;32190;49.112;8.598;2023-07-30T05:42:15;23.80;63.20
32147;DHT22;32190;49.112;8.598;2023-07-30T05:48:05;23.80;63.30
32147;DHT22;32190;49.112;8.598;2023-07-30T05:53:56;24.00;63.30
32147;DHT22;32190;49.112;8.598;2023-07-30T05:59:47;24.10;63.70
32147;DHT22;32190;49.112;8.598;2023-07-30T06:05:41;24.20;63.50
32147;DHT22;32190;49.112;8.598;2023-07-30T06:11:31;24.30;63.50
32147;DHT22;32190;49.112;8.598;2023-07-30T06:17:22;24.40;63.40
32147;DHT22;32190;49.112;8.598;2023-07-30T06:23:12;24.50;63.20
32147;DHT22;32190;49.112;8.598;2023-07-30T06:29:03;24.50;63.00
32147;DHT22;32190;49.112;8.598;2023-07-30T06:34:54;24.60;63.20
32147;DHT22;32190;49.112;8.598;2023-07-30T06:40:44;24.60;63.10
32147;DHT22;32190;49.112;8.598;2023-07-30T06:46:35;24.70;63.00
32147;DHT22;32190;49.112;8.598;2023-07-30T06:52:25;24.70;63.00
32147;DHT22;32190;49.112;8.598;2023-07-30T06:58:16;24.70;62.80
32147;DHT22;32190;49.112;8.598;2023-07-30T07:04:06;24.60;62.60
32147;DHT22;32190;49.112;8.598;2023-07-30T07:09:57;24.50;62.60
32147;DHT22;32190;49.112;8.598;2023-07-30T07:15:48;24.30;62.60
32147;DHT22;32190;49.112;8.598;2023-07-30T07:21:38;24.30;62.80
32147;DHT22;32190;49.112;8.598;2023-07-30T07:27:29;24.20;62.90
32147;DHT22;32190;49.112;8.598;2023-07-30T07:33:19;24.10;63.00
32147;DHT22;32190;49.112;8.598;2023-07-30T07:39:10;24.10;63.10
32147;DHT22;32190;49.112;8.598;2023-07-30T07:45:01;24.00;63.50
32147;DHT22;32190;49.112;8.598;2023-07-30T07:50:52;24.00;63.60
32147;DHT22;32190;49.112;8.598;2023-07-30T07:56:42;24.00;63.90
32147;DHT22;32190;49.112;8.598;2023-07-30T08:02:33;24.00;64.00
32147;DHT22;32190;49.112;8.598;2023-07-30T08:08:25;24.00;64.50
32147;DHT22;32190;49.112;8.598;2023-07-30T08:14:16;24.10;65.00
32147;DHT22;32190;49.112;8.598;2023-07-30T08:20:07;24.20;65.00
32147;DHT22;32190;49.112;8.598;2023-07-30T08:25:58;24.40;64.90
32147;DHT22;32190;49.112;8.598;2023-07-30T08:31:48;24.50;64.80
32147;DHT22;32190;49.112;8.598;2023-07-30T08:37:39;24.70;65.10
32147;DHT22;32190;49.112;8.598;2023-07-30T08:43:33;24.80;64.30
32147;DHT22;32190;49.112;8.598;2023-07-30T08:49:31;24.90;64.30
32147;DHT22;32190;49.112;8.598;2023-07-30T08:55:24;25.00;64.00
32147;DHT22;32190;49.112;8.598;2023-07-30T09:01:16;25.20;63.60
32147;DHT22;32190;49.112;8.598;2023-07-30T09:07:09;25.20;63.30
32147;DHT22;32190;49.112;8.598;2023-07-30T09:13:02;25.30;63.10
32147;DHT22;32190;49.112;8.598;2023-07-30T09:18:53;25.40;62.60
32147;DHT22;32190;49.112;8.598;2023-07-30T09:24:44;25.30;62.10
32147;DHT22;32190;49.112;8.598;2023-07-30T09:30:35;25.40;62.90
32147;DHT22;32190;49.112;8.598;2023-07-30T09:36:25;25.40;62.10
32147;DHT22;32190;49.112;8.598;2023-07-30T09:42:16;25.40;61.80
32147;DHT22;32190;49.112;8.598;2023-07-30T09:48:07;25.50;61.80
32147;DHT22;32190;49.112;8.598;2023-07-30T09:53:57;25.60;61.60
32147;DHT22;32190;49.112;8.598;2023-07-30T09:59:48;25.70;61.40
32147;DHT22;32190;49.112;8.598;2023-07-30T10:05:39;25.70;60.30
32147;DHT22;32190;49.112;8.598;2023-07-30T10:11:30;25.70;59.90
32147;DHT22;32190;49.112;8.598;2023-07-30T10:17:21;25.50;60.10
32147;DHT22;32190;49.112;8.598;2023-07-30T10:23:12;25.40;60.50
32147;DHT22;32190;49.112;8.598;2023-07-30T10:29:16;25.40;61.10
32147;DHT22;32190;49.112;8.598;2023-07-30T10:35:07;25.50;60.00
32147;DHT22;32190;49.112;8.598;2023-07-30T10:41:12;25.50;60.30
32147;DHT22;32190;49.112;8.598;2023-07-30T10:47:03;25.60;60.40
32147;DHT22;32190;49.112;8.598;2023-07-30T10:52:54;25.70;59.90
32147;DHT22;32190;49.112;8.598;2023-07-30T10:58:49;25.70;59.80
32147;DHT22;32190;49.112;8.598;2023-07-30T11:04:41;25.70;58.60
32147;DHT22;32190;49.112;8.598;2023-07-30T11:10:31;25.80;58.60
32147;DHT22;32190;49.112;8.598;2023-07-30T11:16:22;25.80;58.60
32147;DHT22;32190;49.112;8.598;2023-07-30T11:22:13;25.90;58.00
32147;DHT22;32190;49.112;8.598;2023-07-30T11:28:03;26.00;57.40
32147;DHT22;32190;49.112;8.598;2023-07-30T11:33:54;26.10;56.90
32147;DHT22;32190;49.112;8.598;2023-07-30T11:39:45;26.30;56.00
32147;DHT22;32190;49.112;8.598;2023-07-30T11:45:36;26.40;55.40
32147;DHT22;32190;49.112;8.598;2023-07-30T11:51:28;26.40;54.30
32147;DHT22;32190;49.112;8.598;2023-07-30T11:57:18;26.40;53.60
32147;DHT22;32190;49.112;8.598;2023-07-30T12:03:11;26.30;53.00
32147;DHT22;32190;49.112;8.598;2023-07-30T12:09:13;26.20;53.60
32147;DHT22;32190;49.112;8.598;2023-07-30T12:15:10;26.30;52.20
32147;DHT22;32190;49.112;8.598;2023-07-30T12:21:01;26.20;53.60
32147;DHT22;32190;49.112;8.598;2023-07-30T12:26:52;26.30;53.00
32147;DHT22;32190;49.112;8.598;2023-07-30T12:32:42;26.30;52.10
32147;DHT22;32190;49.112;8.598;2023-07-30T12:38:33;26.30;52.60
32147;DHT22;32190;49.112;8.598;2023-07-30T12:44:24;26.40;51.60
32147;DHT22;32190;49.112;8.598;2023-07-30T12:50:15;26.50;51.20
32147;DHT22;32190;49.112;8.598;2023-07-30T12:56:05;26.40;51.70
32147;DHT22;32190;49.112;8.598;2023-07-30T13:01:56;26.40;51.20
32147;DHT22;32190;49.112;8.598;2023-07-30T13:07:47;26.40;50.90
32147;DHT22;32190;49.112;8.598;2023-07-30T13:13:37;26.40;50.50
32147;DHT22;32190;49.112;8.598;2023-07-30T13:19:28;26.40;50.40
32147;DHT22;32190;49.112;8.598;2023-07-30T13:25:20;26.40;51.20
32147;DHT22;32190;49.112;8.598;2023-07-30T13:31:10;26.40;50.50
32147;DHT22;32190;49.112;8.598;2023-07-30T13:37:01;26.40;49.90
32147;DHT22;32190;49.112;8.598;2023-07-30T13:42:52;26.40;50.20
32147;DHT22;32190;49.112;8.598;2023-07-30T13:48:43;26.50;49.90
32147;DHT22;32190;49.112;8.598;2023-07-30T13:54:33;26.60;49.00
32147;DHT22;32190;49.112;8.598;2023-07-30T14:00:24;26.60;48.50
32147;DHT22;32190;49.112;8.598;2023-07-30T14:06:14;26.60;47.40
32147;DHT22;32190;49.112;8.598;2023-07-30T14:12:05;26.60;47.50
32147;DHT22;32190;49.112;8.598;2023-07-30T14:17:56;26.60;47.00
32147;DHT22;32190;49.112;8.598;2023-07-30T14:23:47;26.70;47.30
32147;DHT22;32190;49.112;8.598;2023-07-30T14:29:37;26.80;46.00
32147;DHT22;32190;49.112;8.598;2023-07-30T14:35:28;26.80;45.30
32147;DHT22;32190;49.112;8.598;2023-07-30T14:41:19;26.80;45.00
32147;DHT22;32190;49.112;8.598;2023-07-30T14:47:09;26.80;45.10
32147;DHT22;32190;49.112;8.598;2023-07-30T14:53:00;26.90;44.60
32147;DHT22;32190;49.112;8.598;2023-07-30T14:58:51;27.00;44.50
32147;DHT22;32190;49.112;8.598;2023-07-30T15:04:42;27.00;44.30
32147;DHT22;32190;49.112;8.598;2023-07-30T15:10:35;27.10;44.60
32147;DHT22;32190;49.112;8.598;2023-07-30T15:16:25;27.20;44.60
32147;DHT22;32190;49.112;8.598;2023-07-30T15:22:16;27.20;44.00
32147;DHT22;32190;49.112;8.598;2023-07-30T15:28:06;27.30;44.30
32147;DHT22;32190;49.112;8.598;2023-07-30T15:33:57;27.30;42.60
32147;DHT22;32190;49.112;8.598;2023-07-30T15:39:48;27.20;42.70
32147;DHT22;32190;49.112;8.598;2023-07-30T15:45:38;27.20;43.90
32147;DHT22;32190;49.112;8.598;2023-07-30T15:51:33;27.30;42.90
32147;DHT22;32190;49.112;8.598;2023-07-30T15:57:24;27.20;43.60
32147;DHT22;32190;49.112;8.598;2023-07-30T16:03:14;27.30;43.30
32147;DHT22;32190;49.112;8.598;2023-07-30T16:09:05;27.30;43.10
32147;DHT22;32190;49.112;8.598;2023-07-30T16:14:56;27.40;43.30
32147;DHT22;32190;49.112;8.598;2023-07-30T16:20:46;27.40;42.30
32147;DHT22;32190;49.112;8.598;2023-07-30T16:26:37;27.40;43.20
32147;DHT22;32190;49.112;8.598;2023-07-30T16:32:28;27.30;43.00
32147;DHT22;32190;49.112;8.598;2023-07-30T16:38:18;27.20;43.20
32147;DHT22;32190;49.112;8.598;2023-07-30T16:44:12;27.10;43.40
32147;DHT22;32190;49.112;8.598;2023-07-30T16:50:03;27.10;44.10
32147;DHT22;32190;49.112;8.598;2023-07-30T16:55:53;27.00;43.90
32147;DHT22;32190;49.112;8.598;2023-07-30T17:01:44;27.00;43.80
32147;DHT22;32190;49.112;8.598;2023-07-30T17:07:35;26.90;43.40
32147;DHT22;32190;49.112;8.598;2023-07-30T17:13:25;26.80;43.50
32147;DHT22;32190;49.112;8.598;2023-07-30T17:19:16;26.80;43.70
32147;DHT22;32190;49.112;8.598;2023-07-30T17:25:07;26.70;43.70
32147;DHT22;32190;49.112;8.598;2023-07-30T17:30:57;26.70;43.40
32147;DHT22;32190;49.112;8.598;2023-07-30T17:36:48;26.60;43.70
32147;DHT22;32190;49.112;8.598;2023-07-30T17:42:38;26.50;43.70
32147;DHT22;32190;49.112;8.598;2023-07-30T17:48:29;26.50;44.20
32147;DHT22;32190;49.112;8.598;2023-07-30T17:54:19;26.50;44.60
32147;DHT22;32190;49.112;8.598;2023-07-30T18:00:13;26.50;44.70
32147;DHT22;32190;49.112;8.598;2023-07-30T18:06:03;26.50;44.20
32147;DHT22;32190;49.112;8.598;2023-07-30T18:11:54;26.40;44.60
32147;DHT22;32190;49.112;8.598;2023-07-30T18:17:44;26.40;44.80
32147;DHT22;32190;49.112;8.598;2023-07-30T18:23:35;26.40;45.10
32147;DHT22;32190;49.112;8.598;2023-07-30T18:29:26;26.40;45.00
32147;DHT22;32190;49.112;8.598;2023-07-30T18:35:17;26.30;45.30
32147;DHT22;32190;49.112;8.598;2023-07-30T18:41:07;26.20;45.30
32147;DHT22;32190;49.112;8.598;2023-07-30T18:46:58;26.20;45.60
32147;DHT22;32190;49.112;8.598;2023-07-30T18:52:51;26.10;45.60
32147;DHT22;32190;49.112;8.598;2023-07-30T18:58:41;26.00;45.70
32147;DHT22;32190;49.112;8.598;2023-07-30T19:04:32;25.90;45.50
32147;DHT22;32190;49.112;8.598;2023-07-30T19:10:22;25.80;45.70
32147;DHT22;32190;49.112;8.598;2023-07-30T19:16:13;25.70;46.20
32147;DHT22;32190;49.112;8.598;2023-07-30T19:22:03;25.70;46.40
32147;DHT22;32190;49.112;8.598;2023-07-30T19:27:54;25.50;46.50
32147;DHT22;32190;49.112;8.598;2023-07-30T19:33:45;25.40;46.40
32147;DHT22;32190;49.112;8.598;2023-07-30T19:39:35;25.30;46.80
32147;DHT22;32190;49.112;8.598;2023-07-30T19:45:27;25.30;46.60
32147;DHT22;32190;49.112;8.598;2023-07-30T19:51:18;25.20;46.80
32147;DHT22;32190;49.112;8.598;2023-07-30T19:57:09;25.10;47.10
32147;DHT22;32190;49.112;8.598;2023-07-30T20:02:59;25.00;47.20
32147;DHT22;32190;49.112;8.598;2023-07-30T20:08:50;24.90;47.20
32147;DHT22;32190;49.112;8.598;2023-07-30T20:14:41;24.80;47.50
32147;DHT22;32190;49.112;8.598;2023-07-30T20:20:32;24.80;47.10
32147;DHT22;32190;49.112;8.598;2023-07-30T20:26:23;24.70;47.50
32147;DHT22;32190;49.112;8.598;2023-07-30T20:32:13;24.60;47.60
32147;DHT22;32190;49.112;8.598;2023-07-30T20:38:04;24.50;47.70
32147;DHT22;32190;49.112;8.598;2023-07-30T20:43:54;24.50;47.40
32147;DHT22;32190;49.112;8.598;2023-07-30T20:49:45;24.50;47.80
32147;DHT22;32190;49.112;8.598;2023-07-30T20:55:36;24.50;48.10
32147;DHT22;32190;49.112;8.598;2023-07-30T21:01:26;24.40;48.00
32147;DHT22;32190;49.112;8.598;2023-07-30T21:07:17;24.40;47.90
32147;DHT22;32190;49.112;8.598;2023-07-30T21:13:07;24.40;48.40
32147;DHT22;32190;49.112;8.598;2023-07-30T21:18:58;24.30;47.60
32147;DHT22;32190;49.112;8.598;2023-07-30T21:24:51;24.30;47.60
32147;DHT22;32190;49.112;8.598;2023-07-30T21:30:42;24.20;47.50
32147;DHT22;32190;49.112;8.598;2023-07-30T21:36:32;24.20;47.80
32147;DHT22;32190;49.112;8.598;2023-07-30T21:42:24;24.10;48.60
32147;DHT22;32190;49.112;8.598;2023-07-30T21:48:14;24.10;48.10
32147;DHT22;32190;49.112;8.598;2023-07-30T21:54:05;24.00;48.20
32147;DHT22;32190;49.112;8.598;2023-07-30T21:59:55;24.00;48.20
32147;DHT22;32190;49.112;8.598;2023-07-30T22:05:46;24.00;48.40
32147;DHT22;32190;49.112;8.598;2023-07-30T22:11:36;23.90;48.50
32147;DHT22;32190;49.112;8.598;2023-07-30T22:17:27;23.80;48.50
32147;DHT22;32190;49.112;8.598;2023-07-30T22:23:18;23.80;48.70
32147;DHT22;32190;49.112;8.598;2023-07-30T22:29:08;23.80;48.60
32147;DHT22;32190;49.112;8.598;2023-07-30T22:34:59;23.80;48.80
32147;DHT22;32190;49.112;8.598;2023-07-30T22:40:49;23.80;48.70
32147;DHT22;32190;49.112;8.598;2023-07-30T22:46:40;23.70;49.00
32147;DHT22;32190;49.112;8.598;2023-07-30T22:52:31;23.70;48.80
32147;DHT22;32190;49.112;8.598;2023-07-30T22:58:22;23.70;48.80
32147;DHT22;32190;49.112;8.598;2023-07-30T23:04:12;23.70;49.10
32147;DHT22;32190;49.112;8.598;2023-07-30T23:10:03;23.70;48.80
32147;DHT22;32190;49.112;8.598;2023-07-30T23:15:54;23.70;48.90
32147;DHT22;32190;49.112;8.598;2023-07-30T23:21:44;23.70;48.70
32147;DHT22;32190;49.112;8.598;2023-07-30T23:27:35;23.60;48.50
32147;DHT22;32190;49.112;8.598;2023-07-30T23:33:25;23.60;48.70
32147;DHT22;32190;49.112;8.598;2023-07-30T23:39:16;23.60;48.50
32147;DHT22;32190;49.112;8.598;2023-07-30T23:45:07;23.60;48.80
32147;DHT22;32190;49.112;8.598;2023-07-30T23:50:58;23.50;48.60
32147;DHT22;32190;49.112;8.598;2023-07-30T23:56:48;23.50;48.50
